Time;durP1;ratioP1;P1;durP2;ratioP2;P2;SDS_P1;SDS_P2;PMS_P1;PMS_P2;Temp;Humidity;BMP_temperature;BMP_pressure;BME280_temperature;BME280_humidity;BME280_pressure;Samples;Min_cycle;Max_cycle;Signal;HPM_P1;HPM_P2
2021/04/25 00:01:23;;;;;;;4.28;1.75;;;18.40;53.50;;;;;;5050308;28;20393;-61
2021/04/25 00:03:49;;;;;;;4.82;1.50;;;18.40;53.60;;;;;;5053302;28;20086;-62
2021/04/25 00:06:15;;;;;;;3.88;1.70;;;18.40;53.60;;;;;;5053806;28;20028;-62
2021/04/25 00:08:40;;;;;;;5.03;1.85;;;18.30;53.60;;;;;;5053878;28;20517;-61
2021/04/25 00:11:06;;;;;;;4.07;2.00;;;18.30;53.70;;;;;;5053061;28;20070;-61
2021/04/25 00:13:32;;;;;;;4.32;1.88;;;18.30;53.50;;;;;;5052075;28;20024;-61
2021/04/25 00:15:58;;;;;;;4.03;1.60;;;18.30;53.60;;;;;;5053460;28;20382;-61
2021/04/25 00:18:23;;;;;;;5.63;1.63;;;18.30;53.60;;;;;;5053792;28;20028;-62
2021/04/25 00:20:50;;;;;;;5.32;2.03;;;18.30;53.70;;;;;;5052909;28;20025;-62
2021/04/25 00:23:16;;;;;;;5.95;1.73;;;18.30;53.60;;;;;;5049381;28;20125;-61
2021/04/25 00:25:42;;;;;;;6.32;1.90;;;18.20;53.70;;;;;;5048445;28;20504;-62
2021/04/25 00:28:07;;;;;;;9.10;2.00;;;18.20;53.80;;;;;;5053256;28;20028;-61
2021/04/25 00:30:33;;;;;;;4.68;1.88;;;18.20;53.80;;;;;;5053163;28;20044;-61
2021/04/25 00:32:59;;;;;;;3.85;1.80;;;18.20;53.80;;;;;;5052291;28;20037;-61
2021/04/25 00:35:24;;;;;;;5.60;1.67;;;18.10;53.70;;;;;;5052228;28;20032;-62
2021/04/25 00:37:50;;;;;;;5.00;1.70;;;18.10;53.80;;;;;;5053363;28;20017;-61
2021/04/25 00:40:17;;;;;;;5.05;2.00;;;18.10;53.80;;;;;;5052943;28;20083;-62
2021/04/25 00:42:43;;;;;;;6.53;1.98;;;18.10;53.90;;;;;;5051073;28;20559;-61
2021/04/25 00:45:14;;;;;;;5.18;1.95;;;18.00;53.90;;;;;;5052729;28;20037;-62
2021/04/25 00:47:42;;;;;;;6.00;2.22;;;18.00;54.00;;;;;;5053107;28;20025;-60
2021/04/25 00:50:08;;;;;;;3.85;1.75;;;18.00;54.10;;;;;;5053064;28;20033;-61
2021/04/25 00:52:38;;;;;;;4.47;1.85;;;18.00;54.00;;;;;;5046745;28;20160;-61
2021/04/25 00:55:07;;;;;;;5.28;2.15;;;18.00;54.10;;;;;;5052495;28;20029;-62
2021/04/25 00:57:34;;;;;;;6.05;2.00;;;18.00;54.00;;;;;;5052841;28;20021;-61
2021/04/25 01:00:00;;;;;;;4.15;1.67;;;17.90;54.00;;;;;;5052744;28;20028;-62
2021/04/25 01:02:27;;;;;;;5.53;2.10;;;17.90;54.00;;;;;;5050907;28;20044;-62
2021/04/25 01:04:53;;;;;;;3.85;1.80;;;17.90;54.00;;;;;;5052391;28;20025;-61
2021/04/25 01:07:19;;;;;;;4.88;1.90;;;17.90;54.00;;;;;;5052322;28;20025;-62
2021/04/25 01:09:44;;;;;;;9.63;4.00;;;17.80;54.00;;;;;;5051340;28;20032;-61
2021/04/25 01:12:10;;;;;;;6.72;2.10;;;17.90;54.00;;;;;;5052750;28;20024;-61
2021/04/25 01:14:36;;;;;;;5.53;1.90;;;17.90;54.20;;;;;;5051655;28;20402;-62
2021/04/25 01:17:01;;;;;;;4.53;1.80;;;17.80;54.00;;;;;;5052623;28;20021;-61
2021/04/25 01:19:27;;;;;;;6.53;2.10;;;17.80;54.10;;;;;;5052297;28;20472;-62
2021/04/25 01:21:52;;;;;;;6.45;1.98;;;17.90;54.10;;;;;;5050797;28;20033;-61
2021/04/25 01:24:18;;;;;;;5.05;1.90;;;17.90;54.10;;;;;;5051902;28;20112;-61
2021/04/25 01:26:44;;;;;;;5.65;2.13;;;17.90;54.10;;;;;;5051986;28;20061;-61
2021/04/25 01:29:09;;;;;;;4.50;1.98;;;17.90;54.10;;;;;;5052165;28;20025;-61
2021/04/25 01:31:35;;;;;;;5.82;2.13;;;17.90;53.90;;;;;;5051444;28;20036;-61
2021/04/25 01:34:00;;;;;;;4.80;1.92;;;17.90;53.90;;;;;;5051716;28;20029;-62
2021/04/25 01:36:26;;;;;;;5.38;1.85;;;17.90;53.90;;;;;;5052101;28;20032;-61
2021/04/25 01:38:51;;;;;;;3.85;1.70;;;17.80;54.00;;;;;;5051055;28;20176;-61
2021/04/25 01:41:18;;;;;;;5.80;2.10;;;17.80;54.00;;;;;;5051127;28;20105;-61
2021/04/25 01:43:46;;;;;;;5.10;2.00;;;17.80;53.90;;;;;;5050870;28;20024;-62
2021/04/25 01:46:13;;;;;;;5.82;2.10;;;17.90;53.90;;;;;;5052084;28;20060;-61
2021/04/25 01:48:39;;;;;;;5.93;1.90;;;17.90;53.90;;;;;;5051529;28;20144;-61
2021/04/25 01:51:04;;;;;;;4.22;1.83;;;17.80;53.90;;;;;;5051659;28;20097;-62
2021/04/25 01:53:30;;;;;;;6.68;2.38;;;17.80;53.90;;;;;;5049851;28;20033;-61
2021/04/25 01:55:55;;;;;;;6.63;2.15;;;17.80;53.90;;;;;;5051677;28;20029;-61
2021/04/25 01:58:21;;;;;;;5.40;1.95;;;17.80;53.90;;;;;;5050104;28;20025;-61
2021/04/25 02:00:47;;;;;;;5.38;2.13;;;17.80;53.90;;;;;;5051611;28;20483;-61
2021/04/25 02:03:14;;;;;;;4.90;2.10;;;17.80;53.80;;;;;;5051282;28;20074;-61
2021/04/25 02:05:40;;;;;;;4.68;2.00;;;17.70;53.80;;;;;;5050315;28;20083;-61
2021/04/25 02:08:07;;;;;;;4.47;2.17;;;17.80;53.80;;;;;;5051535;28;20112;-61
2021/04/25 02:10:33;;;;;;;4.57;1.83;;;17.70;53.80;;;;;;5051307;28;20037;-61
2021/04/25 02:12:59;;;;;;;5.35;2.20;;;17.70;53.80;;;;;;5050623;28;20043;-61
2021/04/25 02:15:25;;;;;;;5.78;2.13;;;17.70;53.80;;;;;;5050896;28;20021;-61
2021/04/25 02:17:50;;;;;;;5.72;2.03;;;17.70;53.80;;;;;;5050072;28;20028;-61
2021/04/25 02:20:19;;;;;;;4.32;2.10;;;17.60;53.70;;;;;;5043122;28;20124;-61
2021/04/25 02:22:44;;;;;;;6.43;1.90;;;17.60;53.70;;;;;;5050686;28;20475;-61
2021/04/25 02:25:12;;;;;;;4.95;1.92;;;17.60;53.70;;;;;;5050724;28;20036;-62
2021/04/25 02:27:39;;;;;;;4.55;2.00;;;17.60;53.80;;;;;;5050268;28;20075;-61
2021/04/25 02:30:11;;;;;;;5.57;2.30;;;17.60;53.80;;;;;;5051125;28;20044;-62
2021/04/25 02:32:37;;;;;;;4.55;1.90;;;17.60;53.80;;;;;;5050649;28;20506;-61
2021/04/25 02:35:05;;;;;;;6.50;2.30;;;17.60;53.80;;;;;;5050742;28;20033;-60
2021/04/25 02:37:31;;;;;;;6.45;2.35;;;17.60;53.70;;;;;;5050934;28;20437;-61
2021/04/25 02:39:56;;;;;;;6.18;2.40;;;17.50;53.90;;;;;;5051169;28;20028;-61
2021/04/25 02:42:22;;;;;;;5.03;2.15;;;17.60;54.00;;;;;;5050301;28;20025;-61
2021/04/25 02:44:47;;;;;;;5.32;1.92;;;17.60;54.00;;;;;;5050289;28;20421;-62
2021/04/25 02:47:13;;;;;;;4.90;2.03;;;17.60;54.00;;;;;;5050177;28;20047;-61
2021/04/25 02:49:39;;;;;;;5.10;2.08;;;17.60;54.00;;;;;;5047977;28;20048;-62
2021/04/25 02:52:04;;;;;;;4.43;1.88;;;17.60;53.90;;;;;;5045548;28;20559;-61
2021/04/25 02:54:30;;;;;;;4.18;2.13;;;17.70;54.00;;;;;;5050170;28;20025;-61
2021/04/25 02:56:56;;;;;;;4.82;2.30;;;17.60;54.00;;;;;;5050693;28;20031;-61
2021/04/25 02:59:21;;;;;;;4.53;2.20;;;17.60;54.00;;;;;;5050250;28;20100;-62
2021/04/25 03:01:47;;;;;;;5.38;2.15;;;17.60;53.90;;;;;;5050319;28;20387;-61
2021/04/25 03:04:12;;;;;;;7.28;2.20;;;17.60;54.00;;;;;;5050448;28;20017;-62
2021/04/25 03:06:38;;;;;;;4.93;2.08;;;17.60;54.00;;;;;;5050728;28;20025;-61
2021/04/25 03:09:03;;;;;;;4.43;2.10;;;17.60;53.90;;;;;;5049208;28;20036;-61
2021/04/25 03:11:29;;;;;;;4.88;2.05;;;17.60;53.90;;;;;;5050578;28;20017;-61
2021/04/25 03:13:54;;;;;;;5.25;1.73;;;17.60;53.80;;;;;;5048737;28;20029;-62
2021/04/25 03:16:20;;;;;;;4.85;2.05;;;17.60;54.10;;;;;;5050587;28;20055;-62
2021/04/25 03:18:45;;;;;;;5.18;2.10;;;17.60;53.70;;;;;;5050824;28;20541;-62
2021/04/25 03:21:11;;;;;;;4.18;1.90;;;17.60;53.60;;;;;;5050666;28;20033;-62
2021/04/25 03:23:37;;;;;;;4.90;2.10;;;17.60;53.60;;;;;;5049195;28;20071;-62
2021/04/25 03:26:02;;;;;;;5.78;2.00;;;17.50;53.60;;;;;;5050227;28;20032;-62
2021/04/25 03:28:28;;;;;;;4.07;2.10;;;17.60;53.60;;;;;;5054191;28;20375;-61
2021/04/25 03:30:54;;;;;;;6.47;2.05;;;17.60;53.50;;;;;;5054469;28;20037;-62
2021/04/25 03:33:21;;;;;;;4.80;1.92;;;17.60;53.50;;;;;;5054133;28;20029;-62
2021/04/25 03:35:47;;;;;;;4.93;2.00;;;17.60;53.50;;;;;;5053157;28;20108;-61
2021/04/25 03:38:12;;;;;;;4.63;1.80;;;17.60;53.50;;;;;;5054015;28;20039;-62
2021/04/25 03:40:38;;;;;;;4.15;1.85;;;17.50;53.40;;;;;;5054359;28;20021;-62
2021/04/25 03:43:03;;;;;;;4.38;2.00;;;17.50;53.50;;;;;;5050168;28;20044;-62
2021/04/25 03:45:29;;;;;;;4.68;2.22;;;17.60;53.50;;;;;;5047923;28;20040;-62
2021/04/25 03:47:54;;;;;;;5.45;2.10;;;17.50;53.50;;;;;;5054345;28;20209;-61
2021/04/25 03:50:24;;;;;;;6.07;2.10;;;17.50;53.50;;;;;;5054025;28;20083;-61
2021/04/25 03:52:50;;;;;;;5.20;1.90;;;17.50;53.40;;;;;;5053280;28;20092;-61
2021/04/25 03:55:18;;;;;;;5.40;2.00;;;17.50;53.50;;;;;;5052130;28;20067;-62
2021/04/25 03:57:44;;;;;;;7.20;2.08;;;17.50;53.50;;;;;;5052441;28;20021;-62
2021/04/25 04:00:13;;;;;;;4.75;1.92;;;17.40;53.50;;;;;;5052953;28;20025;-61
2021/04/25 04:02:39;;;;;;;6.15;1.98;;;17.50;53.50;;;;;;5053015;28;20068;-62
2021/04/25 04:05:05;;;;;;;5.80;1.98;;;17.40;53.60;;;;;;5050628;28;20090;-62
2021/04/25 04:07:31;;;;;;;6.10;2.28;;;17.40;53.60;;;;;;5052529;28;20029;-61
2021/04/25 04:09:57;;;;;;;4.90;2.20;;;17.40;53.60;;;;;;5052149;28;20025;-62
2021/04/25 04:12:23;;;;;;;5.32;2.08;;;17.40;53.50;;;;;;5052446;28;20116;-61
2021/04/25 04:14:50;;;;;;;5.43;2.00;;;17.40;53.60;;;;;;5052841;28;20033;-62
2021/04/25 04:17:15;;;;;;;4.95;2.00;;;17.40;53.60;;;;;;5053769;28;20100;-62
2021/04/25 04:19:41;;;;;;;4.50;1.90;;;17.40;53.50;;;;;;5053517;28;20171;-62
2021/04/25 04:22:06;;;;;;;4.20;1.95;;;17.30;53.60;;;;;;5053415;28;20028;-62
2021/04/25 04:24:32;;;;;;;5.70;2.28;;;17.30;53.60;;;;;;5052200;28;20033;-62
2021/04/25 04:26:58;;;;;;;4.00;1.80;;;17.30;53.70;;;;;;5052755;28;20035;-61
2021/04/25 04:29:23;;;;;;;5.95;1.85;;;17.40;53.60;;;;;;5053276;28;20371;-61
2021/04/25 04:31:49;;;;;;;5.90;2.05;;;17.40;53.60;;;;;;5049953;28;20032;-62
2021/04/25 04:34:15;;;;;;;3.50;1.63;;;17.30;53.60;;;;;;5053024;28;20075;-61
2021/04/25 04:36:40;;;;;;;3.95;1.80;;;17.30;53.60;;;;;;5052609;28;20031;-61
2021/04/25 04:39:06;;;;;;;5.63;2.17;;;17.40;53.60;;;;;;5052806;28;20509;-62
2021/04/25 04:41:31;;;;;;;5.47;1.88;;;17.30;53.60;;;;;;5053278;28;20078;-61
2021/04/25 04:43:58;;;;;;;4.85;1.98;;;17.30;53.70;;;;;;5052299;28;20036;-61
2021/04/25 04:46:24;;;;;;;7.18;2.15;;;17.30;53.70;;;;;;5051907;28;20028;-61
2021/04/25 04:48:49;;;;;;;5.57;1.85;;;17.30;53.60;;;;;;5051444;28;20398;-61
2021/04/25 04:51:15;;;;;;;4.50;2.05;;;17.30;53.50;;;;;;5052587;28;20510;-61
2021/04/25 04:53:40;;;;;;;5.38;1.95;;;17.30;53.50;;;;;;5045484;28;20479;-62
2021/04/25 04:56:06;;;;;;;5.05;2.15;;;17.30;53.50;;;;;;5043846;28;20028;-62
2021/04/25 04:58:31;;;;;;;5.90;2.00;;;17.30;53.50;;;;;;5048022;28;20029;-61
2021/04/25 05:00:57;;;;;;;3.72;1.70;;;17.30;53.50;;;;;;5042107;28;20487;-62
2021/04/25 05:03:23;;;;;;;5.25;1.90;;;17.30;53.40;;;;;;5050285;28;20041;-62
2021/04/25 05:05:48;;;;;;;4.43;1.80;;;17.30;53.40;;;;;;5040988;28;20021;-61
2021/04/25 05:08:14;;;;;;;3.35;1.73;;;17.30;53.40;;;;;;5050847;28;20544;-62
2021/04/25 05:10:39;;;;;;;3.90;1.63;;;17.30;53.40;;;;;;5043531;28;20043;-61
2021/04/25 05:13:09;;;;;;;3.67;1.58;;;17.30;53.40;;;;;;5049463;28;20029;-61
2021/04/25 05:15:36;;;;;;;4.65;2.00;;;17.30;53.30;;;;;;5040817;28;20021;-61
2021/04/25 05:18:02;;;;;;;3.80;1.70;;;17.30;53.30;;;;;;5046358;28;20078;-62
2021/04/25 05:20:28;;;;;;;4.40;1.60;;;17.30;53.30;;;;;;5050324;28;20033;-62
2021/04/25 05:22:58;;;;;;;5.15;2.00;;;17.30;53.30;;;;;;5042690;28;20124;-62
2021/04/25 05:25:24;;;;;;;4.57;1.98;;;17.30;53.30;;;;;;5049301;28;20048;-61
2021/04/25 05:27:49;;;;;;;5.00;1.90;;;17.30;53.30;;;;;;5050400;28;20056;-61
2021/04/25 05:30:15;;;;;;;5.50;1.98;;;17.30;53.30;;;;;;5041290;28;20029;-62
2021/04/25 05:32:41;;;;;;;5.50;1.60;;;17.30;53.20;;;;;;5040279;28;20029;-61
2021/04/25 05:35:07;;;;;;;3.95;1.77;;;17.30;53.30;;;;;;5040603;28;20061;-62
2021/04/25 05:37:32;;;;;;;4.93;1.73;;;17.30;53.10;;;;;;5048493;28;20124;-62
2021/04/25 05:39:58;;;;;;;6.20;1.95;;;17.30;53.10;;;;;;5050121;28;20040;-62
2021/04/25 05:42:23;;;;;;;3.78;1.70;;;17.30;53.10;;;;;;5044502;28;20021;-69
2021/04/25 05:44:50;;;;;;;5.18;1.80;;;17.40;53.20;;;;;;5035694;28;20453;-61
2021/04/25 05:47:16;;;;;;;7.78;1.95;;;17.40;53.20;;;;;;5045943;28;20086;-62
2021/04/25 05:49:42;;;;;;;6.85;1.88;;;17.40;53.20;;;;;;5048870;28;20029;-61
2021/04/25 05:52:07;;;;;;;6.40;2.00;;;17.40;53.20;;;;;;5050039;28;20051;-62
2021/04/25 05:54:33;;;;;;;4.97;1.70;;;17.40;53.20;;;;;;5041621;28;20029;-62
2021/04/25 05:56:58;;;;;;;3.88;1.88;;;17.40;53.20;;;;;;5046565;28;20368;-62
2021/04/25 05:59:24;;;;;;;7.30;1.88;;;17.30;53.10;;;;;;5044358;28;20110;-62
2021/04/25 06:01:49;;;;;;;5.68;1.60;;;17.40;53.10;;;;;;5049059;28;20037;-62
2021/04/25 06:04:15;;;;;;;4.38;1.67;;;17.40;53.00;;;;;;5044677;28;20410;-63
2021/04/25 06:06:40;;;;;;;4.25;1.63;;;17.40;53.00;;;;;;5044719;28;20021;-62
2021/04/25 06:09:06;;;;;;;5.05;1.73;;;17.40;53.00;;;;;;5047982;28;20035;-62
2021/04/25 06:11:33;;;;;;;8.20;2.00;;;17.40;52.90;;;;;;5044455;28;20025;-63
2021/04/25 06:13:59;;;;;;;5.03;1.90;;;17.40;52.90;;;;;;5049942;28;20417;-62
2021/04/25 06:16:24;;;;;;;3.97;1.67;;;17.50;52.80;;;;;;5044434;28;20096;-62
2021/04/25 06:18:50;;;;;;;4.28;1.58;;;17.50;52.80;;;;;;5043063;28;20028;-61
2021/04/25 06:21:15;;;;;;;3.42;1.58;;;17.50;52.80;;;;;;5048313;28;20105;-62
2021/04/25 06:23:41;;;;;;;5.63;1.77;;;17.50;52.70;;;;;;5045764;28;20087;-62
2021/04/25 06:26:06;;;;;;;4.57;1.75;;;17.50;52.70;;;;;;5050881;28;20036;-62
2021/04/25 06:28:32;;;;;;;7.05;2.28;;;17.50;52.70;;;;;;5050467;28;20021;-61
2021/04/25 06:30:59;;;;;;;5.15;1.70;;;17.50;52.60;;;;;;5049082;28;20387;-62
2021/04/25 06:33:25;;;;;;;4.22;1.58;;;17.50;52.60;;;;;;5048600;28;20025;-61
2021/04/25 06:35:50;;;;;;;3.83;1.60;;;17.50;52.50;;;;;;5048036;28;20540;-62
2021/04/25 06:38:16;;;;;;;4.28;1.60;;;17.50;52.50;;;;;;5050662;28;20025;-61
2021/04/25 06:40:42;;;;;;;9.75;2.22;;;17.50;52.60;;;;;;5044794;28;20025;-62
2021/04/25 06:43:07;;;;;;;7.18;1.67;;;17.60;52.60;;;;;;5044769;28;20024;-61
2021/04/25 06:45:33;;;;;;;5.15;1.67;;;17.60;52.40;;;;;;5043732;28;20032;-61
2021/04/25 06:47:59;;;;;;;4.15;1.33;;;17.60;52.30;;;;;;5040312;28;20048;-62
2021/04/25 06:50:25;;;;;;;5.70;1.70;;;17.70;52.50;;;;;;5046440;28;20017;-62
2021/04/25 06:52:50;;;;;;;6.82;1.60;;;17.70;52.50;;;;;;5048706;28;20029;-62
2021/04/25 06:55:19;;;;;;;6.13;1.55;;;17.80;52.50;;;;;;5048066;28;20028;-62
2021/04/25 06:57:47;;;;;;;6.45;1.55;;;17.90;52.40;;;;;;5046612;28;20053;-63
2021/04/25 07:00:13;;;;;;;3.58;1.60;;;18.20;51.60;;;;;;5041026;28;20032;-62
2021/04/25 07:02:39;;;;;;;4.93;1.67;;;18.50;50.90;;;;;;5041427;28;20070;-62
2021/04/25 07:05:05;;;;;;;4.05;1.65;;;18.50;50.80;;;;;;5043524;28;20033;-62
2021/04/25 07:07:32;;;;;;;6.82;1.48;;;18.60;50.60;;;;;;5050442;28;20379;-62
2021/04/25 07:09:58;;;;;;;5.80;1.50;;;18.80;50.30;;;;;;5045409;28;20564;-62
2021/04/25 07:12:25;;;;;;;5.15;1.50;;;18.80;50.00;;;;;;5047844;28;20091;-62
2021/04/25 07:14:50;;;;;;;4.18;1.48;;;18.90;50.00;;;;;;5050341;28;20028;-62
2021/04/25 07:17:16;;;;;;;4.43;1.30;;;18.90;49.90;;;;;;5048402;28;20025;-61
2021/04/25 07:19:41;;;;;;;3.72;1.20;;;18.90;49.90;;;;;;5046932;28;20098;-61
2021/04/25 07:22:07;;;;;;;4.75;1.50;;;18.80;50.40;;;;;;5045828;28;20045;-62
2021/04/25 07:24:33;;;;;;;10.13;1.60;;;18.80;49.90;;;;;;5047910;28;20037;-61
2021/04/25 07:26:58;;;;;;;6.47;1.40;;;18.80;50.00;;;;;;5048214;28;20021;-61
2021/04/25 07:29:24;;;;;;;8.73;1.60;;;18.90;50.40;;;;;;5050335;28;20025;-62
2021/04/25 07:31:50;;;;;;;7.75;1.60;;;18.90;50.30;;;;;;5048218;28;20082;-62
2021/04/25 07:34:16;;;;;;;8.80;1.90;;;19.10;50.80;;;;;;5041563;28;20032;-61
2021/04/25 07:36:42;;;;;;;8.98;2.00;;;19.10;50.00;;;;;;5041679;28;20049;-62
2021/04/25 07:39:07;;;;;;;15.20;2.03;;;19.10;49.80;;;;;;5047190;28;20127;-61
2021/04/25 07:41:34;;;;;;;9.85;1.75;;;19.20;49.70;;;;;;5048342;28;20439;-67
2021/04/25 07:44:00;;;;;;;15.23;2.45;;;19.30;49.30;;;;;;5048571;28;20406;-63
2021/04/25 07:46:25;;;;;;;16.88;3.20;;;19.30;49.50;;;;;;5043192;28;20037;-70
2021/04/25 07:48:51;;;;;;;35.83;10.43;;;19.40;49.70;;;;;;5048934;28;20029;-68
2021/04/25 07:51:16;;;;;;;105.47;29.08;;;19.50;49.40;;;;;;5041830;28;20025;-71
2021/04/25 07:53:42;;;;;;;56.05;15.25;;;19.50;49.30;;;;;;5042686;28;20510;-65
2021/04/25 07:56:08;;;;;;;75.28;19.75;;;19.40;48.00;;;;;;5038389;28;20029;-71
2021/04/25 07:58:34;;;;;;;104.03;20.38;;;19.50;49.60;;;;;;5040951;28;20669;-67
2021/04/25 08:01:00;;;;;;;83.35;22.10;;;19.60;49.60;;;;;;5043147;28;20029;-72
2021/04/25 08:03:25;;;;;;;90.47;23.77;;;19.70;50.30;;;;;;5048981;28;20094;-71
2021/04/25 08:05:51;;;;;;;90.38;24.52;;;19.80;51.90;;;;;;5044848;28;20036;-70
2021/04/25 08:08:16;;;;;;;70.07;20.88;;;19.80;51.90;;;;;;5049772;28;20068;-67
2021/04/25 08:10:44;;;;;;;82.45;22.63;;;19.80;51.70;;;;;;5051322;28;20029;-72
2021/04/25 08:13:10;;;;;;;69.72;19.10;;;19.80;52.10;;;;;;5050129;28;20033;-72
2021/04/25 08:15:35;;;;;;;64.68;18.88;;;19.80;52.20;;;;;;5051704;28;20051;-72
2021/04/25 08:18:01;;;;;;;48.78;16.63;;;19.90;52.40;;;;;;5050877;28;20048;-72
2021/04/25 08:20:27;;;;;;;54.13;16.67;;;19.80;52.00;;;;;;5051605;28;20573;-73
2021/04/25 08:22:52;;;;;;;47.10;16.60;;;19.90;52.00;;;;;;5051989;28;20037;-76
2021/04/25 08:25:18;;;;;;;50.70;16.70;;;19.80;51.90;;;;;;5046438;28;20021;-74
2021/04/25 08:27:44;;;;;;;52.33;14.25;;;19.90;52.40;;;;;;5044230;28;20079;-71
2021/04/25 08:30:10;;;;;;;42.30;13.50;;;19.90;51.10;;;;;;5045595;28;20671;-70
2021/04/25 08:32:35;;;;;;;42.85;12.55;;;19.90;51.00;;;;;;5045304;28;20597;-69
2021/04/25 08:35:01;;;;;;;40.65;11.30;;;19.90;50.60;;;;;;5049630;28;20100;-68
2021/04/25 08:37:27;;;;;;;46.60;12.80;;;19.80;49.50;;;;;;5046816;28;20037;-70
2021/04/25 08:39:52;;;;;;;44.67;12.23;;;19.70;49.60;;;;;;5050117;28;20092;-71
2021/04/25 08:42:18;;;;;;;31.23;10.80;;;19.60;50.20;;;;;;5043359;28;20036;-71
2021/04/25 08:44:45;;;;;;;37.25;10.40;;;19.60;50.50;;;;;;5039831;28;20029;-71
2021/04/25 08:47:12;;;;;;;32.58;9.93;;;19.60;50.20;;;;;;5043103;28;20044;-71
2021/04/25 08:49:42;;;;;;;27.27;8.05;;;19.50;50.00;;;;;;5044080;28;20857;-71
2021/04/25 08:52:08;;;;;;;22.08;7.57;;;19.60;49.90;;;;;;5044948;28;20033;-71
2021/04/25 08:54:34;;;;;;;21.85;7.40;;;19.60;49.60;;;;;;5043897;28;20028;-71
2021/04/25 08:56:59;;;;;;;26.30;7.80;;;19.50;49.40;;;;;;5046759;28;20490;-71
2021/04/25 08:59:25;;;;;;;27.20;7.80;;;19.60;49.50;;;;;;5047451;28;20017;-70
2021/04/25 09:01:51;;;;;;;21.83;7.13;;;19.60;49.70;;;;;;5038232;28;20025;-71
2021/04/25 09:04:16;;;;;;;25.17;6.43;;;19.60;49.40;;;;;;5044013;28;20028;-73
2021/04/25 09:06:59;;;;;;;20.20;6.68;;;19.60;49.00;;;;;;5047503;28;20116;-71
2021/04/25 09:09:48;;;;;;;24.25;5.55;;;19.70;49.30;;;;;;5048071;28;20040;-71
2021/04/25 09:12:31;;;;;;;21.08;5.20;;;19.70;48.70;;;;;;5050598;28;20029;-72
2021/04/25 09:14:57;;;;;;;25.25;5.50;;;19.80;48.40;;;;;;5049762;28;20062;-71
2021/04/25 09:17:23;;;;;;;31.13;5.55;;;19.80;48.60;;;;;;5051280;28;20025;-71
2021/04/25 09:19:54;;;;;;;26.42;5.05;;;19.80;48.40;;;;;;5039054;28;20025;-69
2021/04/25 09:22:21;;;;;;;;;;;19.80;48.30;;;;;;5042833;28;20028;-70
2021/04/25 09:24:48;;;;;;;25.85;6.15;;;19.90;48.50;;;;;;5052140;28;19909;-70
2021/04/25 09:27:27;;;;;;;30.05;5.70;;;19.90;48.50;;;;;;5043683;28;20099;-71
2021/04/25 09:29:58;;;;;;;22.45;5.35;;;19.90;48.50;;;;;;5039035;28;20482;-71
2021/04/25 09:32:32;;;;;;;32.47;6.30;;;19.90;48.80;;;;;;5051982;28;20021;-71
2021/04/25 09:35:19;;;;;;;27.25;5.25;;;19.90;48.80;;;;;;5051452;28;20029;-71
2021/04/25 09:37:48;;;;;;;18.55;4.97;;;20.20;48.80;;;;;;5050870;28;20012;-71
2021/04/25 09:40:25;;;;;;;19.67;4.95;;;20.20;48.30;;;;;;5050351;28;20105;-70
2021/04/25 09:42:59;;;;;;;22.35;4.15;;;20.20;48.20;;;;;;5060548;28;20560;-67
2021/04/25 09:45:43;;;;;;;22.15;4.15;;;20.20;48.10;;;;;;5050281;28;20122;-69
2021/04/25 09:48:29;;;;;;;19.27;4.35;;;20.10;48.10;;;;;;5049316;28;20029;-70
2021/04/25 09:51:04;;;;;;;19.15;4.30;;;20.20;48.20;;;;;;5051631;28;20025;-69
2021/04/25 09:53:29;;;;;;;22.50;4.28;;;20.10;48.20;;;;;;5049776;28;20033;-70
2021/04/25 09:55:56;;;;;;;20.92;3.88;;;20.20;47.90;;;;;;5044492;28;20025;-69
2021/04/25 09:58:22;;;;;;;14.20;3.70;;;20.40;47.60;;;;;;5043242;28;20391;-69
2021/04/25 10:00:50;;;;;;;16.50;4.30;;;20.40;47.60;;;;;;5044761;28;20036;-69
2021/04/25 10:03:19;;;;;;;15.15;3.65;;;20.40;47.60;;;;;;5040450;28;20021;-69
2021/04/25 10:06:04;;;;;;;22.40;4.40;;;20.40;47.60;;;;;;5043999;28;20017;-71
2021/04/25 10:08:31;;;;;;;14.50;3.33;;;20.40;48.30;;;;;;5037847;28;20025;-72
2021/04/25 10:10:57;;;;;;;19.80;3.40;;;20.50;48.40;;;;;;5064075;28;20025;-72
2021/04/25 10:13:24;;;;;;;18.55;3.50;;;20.50;48.20;;;;;;5042671;28;20083;-73
2021/04/25 10:15:50;;;;;;;15.55;3.60;;;20.50;49.40;;;;;;5046457;28;20044;-72
2021/04/25 10:18:18;;;;;;;21.05;3.25;;;20.50;48.50;;;;;;5042215;28;20047;-73
2021/04/25 10:20:45;;;;;;;14.07;2.88;;;20.70;48.00;;;;;;5033527;28;20025;-73
2021/04/25 10:23:12;;;;;;;17.17;2.95;;;21.20;46.80;;;;;;5048644;28;20028;-71
2021/04/25 10:25:38;;;;;;;18.10;3.83;;;21.30;46.50;;;;;;5049404;28;20071;-71
2021/04/25 10:28:10;;;;;;;28.45;5.28;;;21.40;46.40;;;;;;5045176;28;20654;-72
2021/04/25 10:30:41;;;;;;;20.17;4.53;;;21.60;46.20;;;;;;5043082;28;20055;-71
2021/04/25 10:33:07;;;;;;;18.85;3.78;;;21.70;45.70;;;;;;5041893;28;20029;-73
2021/04/25 10:35:34;;;;;;;18.05;3.30;;;21.70;45.70;;;;;;5045856;28;20028;-72
2021/04/25 10:38:02;;;;;;;12.38;2.88;;;21.60;45.80;;;;;;5040159;28;20021;-73
2021/04/25 10:40:31;;;;;;;14.60;3.05;;;21.60;45.60;;;;;;5041459;28;20021;-72
2021/04/25 10:43:05;;;;;;;19.55;4.15;;;21.60;45.60;;;;;;5040534;28;20078;-71
2021/04/25 10:45:34;;;;;;;16.67;2.92;;;21.50;46.10;;;;;;5041786;28;20487;-72
2021/04/25 10:48:21;;;;;;;17.20;3.58;;;21.40;45.90;;;;;;5048214;28;20037;-71
2021/04/25 10:50:51;;;;;;;27.20;3.47;;;21.50;46.00;;;;;;5041484;28;20022;-72
2021/04/25 10:53:28;;;;;;;19.90;2.97;;;22.40;42.40;;;;;;5039456;28;20025;-72
2021/04/25 10:56:21;;;;;;;14.13;2.40;;;22.40;42.90;;;;;;5039443;28;20036;-71
2021/04/25 10:59:08;;;;;;;21.70;3.20;;;22.30;43.20;;;;;;5034829;28;20437;-72
2021/04/25 11:01:39;;;;;;;19.48;2.83;;;22.30;43.20;;;;;;5047030;28;20036;-73
2021/04/25 11:04:06;;;;;;;19.20;2.88;;;22.00;43.50;;;;;;5049429;28;20150;-73
2021/04/25 11:06:31;;;;;;;13.30;2.35;;;21.80;44.40;;;;;;5038907;28;20049;-74
2021/04/25 11:08:57;;;;;;;13.52;2.38;;;21.70;44.60;;;;;;5044025;28;20406;-71
2021/04/25 11:11:30;;;;;;;28.88;4.65;;;22.00;44.30;;;;;;5048822;28;20040;-71
2021/04/25 11:13:57;;;;;;;25.88;4.53;;;21.90;44.20;;;;;;5047559;28;20033;-75
2021/04/25 11:16:22;;;;;;;27.65;4.18;;;21.80;44.80;;;;;;5047073;28;20021;-72
2021/04/25 11:19:06;;;;;;;23.80;4.43;;;21.80;44.00;;;;;;5050954;28;20028;-72
2021/04/25 11:21:33;;;;;;;23.92;3.78;;;21.70;44.20;;;;;;5046970;28;20023;-69
2021/04/25 11:24:02;;;;;;;41.75;5.53;;;21.70;44.40;;;;;;5049293;28;20383;-74
2021/04/25 11:26:41;;;;;;;29.85;5.68;;;21.70;43.50;;;;;;5044412;28;20025;-73
2021/04/25 11:29:14;;;;;;;70.13;12.40;;;21.80;43.40;;;;;;5042754;28;20025;-71
2021/04/25 11:45:30;;;;;;;304.88;63.30;;;23.70;40.40;;;;;;5114925;27;20436;-66
2021/04/25 11:47:57;;;;;;;224.60;51.00;;;24.60;39.50;;;;;;5091387;28;20034;-64
2021/04/25 11:50:28;;;;;;;202.82;46.10;;;24.00;40.10;;;;;;5109705;28;20054;-67
2021/04/25 11:52:53;;;;;;;210.75;46.17;;;23.40;40.70;;;;;;5085417;22;20053;-66
2021/04/25 11:55:20;;;;;;;221.05;48.97;;;23.30;41.10;;;;;;5047421;28;20507;-69
2021/04/25 11:57:49;;;;;;;200.80;48.08;;;23.10;42.20;;;;;;5051091;28;20018;-68
2021/04/25 12:00:21;;;;;;;165.00;39.55;;;22.80;42.50;;;;;;5046979;28;20144;-68
2021/04/25 12:03:05;;;;;;;165.07;41.08;;;22.50;43.00;;;;;;5028547;28;20021;-69
2021/04/25 12:05:32;;;;;;;174.43;40.83;;;22.50;43.30;;;;;;5021890;28;20029;-68
2021/04/25 12:07:59;;;;;;;170.27;41.40;;;22.50;43.10;;;;;;5045808;28;20041;-68
2021/04/25 12:10:33;;;;;;;131.93;32.05;;;22.50;43.40;;;;;;5066476;28;20025;-70
2021/04/25 12:13:16;;;;;;;179.60;49.03;;;22.40;43.10;;;;;;5046393;28;20025;-69
2021/04/25 12:15:48;;;;;;;145.57;49.90;;;22.40;43.70;;;;;;5046834;28;20029;-69
2021/04/25 12:18:16;;;;;;;152.00;45.25;;;22.50;43.30;;;;;;5028679;28;20503;-69
2021/04/25 12:20:49;;;;;;;140.43;41.03;;;22.60;42.80;;;;;;5047183;28;20057;-69
2021/04/25 12:23:23;;;;;;;143.02;38.65;;;22.70;42.80;;;;;;5028346;28;20120;-69
2021/04/25 12:25:51;;;;;;;116.40;37.78;;;22.80;42.70;;;;;;5044104;28;20071;-72
2021/04/25 12:28:18;;;;;;;101.20;31.88;;;22.90;43.10;;;;;;5027975;28;20025;-68
2021/04/25 12:30:45;;;;;;;98.03;31.80;;;23.00;42.50;;;;;;5046556;28;20370;-67
2021/04/25 12:33:16;;;;;;;108.13;32.53;;;23.10;42.30;;;;;;5050432;28;20120;-66
2021/04/25 12:35:43;;;;;;;98.00;29.88;;;23.00;42.40;;;;;;5028722;28;20404;-69
2021/04/25 12:38:24;;;;;;;97.18;28.92;;;23.00;42.70;;;;;;5060169;28;20022;-68
2021/04/25 12:40:55;;;;;;;86.25;27.63;;;22.80;42.80;;;;;;5043313;28;20029;-70
2021/04/25 12:43:20;;;;;;;81.20;26.95;;;22.70;43.00;;;;;;5060911;28;20108;-71
2021/04/25 12:45:46;;;;;;;82.97;28.00;;;22.80;43.20;;;;;;5056757;28;20117;-69
2021/04/25 12:48:30;;;;;;;76.60;24.25;;;22.70;43.30;;;;;;5047672;28;20018;-69
2021/04/25 12:51:32;;;;;;;89.63;25.90;;;22.70;43.30;;;;;;5013983;28;20512;-67
2021/04/25 12:53:59;;;;;;;83.85;26.60;;;22.70;43.60;;;;;;4970791;28;21570;-68
2021/04/25 12:56:31;;;;;;;72.03;25.95;;;22.80;43.80;;;;;;5003347;28;20033;-67